Time;durP1;ratioP1;P1;durP2;ratioP2;P2;SDS_P1;SDS_P2;PMS_P1;PMS_P2;Temp;Humidity;BMP_temperature;BMP_pressure;BME280_temperature;BME280_humidity;BME280_pressure;Samples;Min_cycle;Max_cycle;Signal;HPM_P1;HPM_P2
2023/10/10 00:00:23;;;;;;;10.27;5.57;;;15.00;99.90;;;;;;5094750;28;20497;-47
2023/10/10 00:02:51;;;;;;;9.48;5.32;;;14.90;99.90;;;;;;5090668;28;20040;-49
2023/10/10 00:05:18;;;;;;;14.02;6.13;;;15.10;99.90;;;;;;5076574;28;20047;-46
2023/10/10 00:07:44;;;;;;;7.88;5.07;;;15.00;99.90;;;;;;5094482;28;20036;-48
2023/10/10 00:10:13;;;;;;;10.57;6.47;;;15.00;99.90;;;;;;5094549;28;20386;-46
2023/10/10 00:12:39;;;;;;;10.57;6.43;;;15.00;99.90;;;;;;5094449;28;20044;-48
2023/10/10 00:15:12;;;;;;;13.05;6.15;;;15.10;99.90;;;;;;5056473;28;20039;-48
2023/10/10 00:17:37;;;;;;;8.88;5.90;;;15.00;99.90;;;;;;5086183;28;20424;-46
2023/10/10 00:20:21;;;;;;;8.43;5.68;;;15.00;99.90;;;;;;5094592;28;20039;-48
2023/10/10 00:22:48;;;;;;;11.52;5.90;;;15.00;99.90;;;;;;5076345;28;20079;-48
2023/10/10 00:25:16;;;;;;;11.68;5.65;;;15.00;99.90;;;;;;5094091;28;20040;-47
2023/10/10 00:27:46;;;;;;;8.93;5.95;;;15.00;99.90;;;;;;5094026;28;20052;-46
2023/10/10 00:30:12;;;;;;;11.13;6.03;;;15.10;99.90;;;;;;5094045;28;20042;-47
2023/10/10 00:32:42;;;;;;;11.23;5.88;;;15.10;99.90;;;;;;5093473;28;20036;-48
2023/10/10 00:35:11;;;;;;;8.82;5.57;;;15.10;99.90;;;;;;5094041;28;20050;-49
2023/10/10 00:37:37;;;;;;;14.43;5.78;;;15.00;99.90;;;;;;5093933;28;20123;-49
2023/10/10 00:40:10;;;;;;;10.70;5.15;;;15.00;99.90;;;;;;5093837;28;20122;-50
2023/10/10 00:42:42;;;;;;;11.85;6.22;;;14.70;99.90;;;;;;5094048;28;20379;-48
2023/10/10 00:45:12;;;;;;;10.88;5.90;;;15.20;99.90;;;;;;5093926;28;20036;-46
2023/10/10 00:47:42;;;;;;;10.27;5.82;;;15.10;99.90;;;;;;5093773;28;20113;-46
2023/10/10 00:50:19;;;;;;;11.43;6.10;;;15.20;99.90;;;;;;5093893;28;20074;-48
2023/10/10 00:52:48;;;;;;;9.77;5.60;;;15.10;99.90;;;;;;5093922;28;20036;-50
2023/10/10 00:55:21;;;;;;;8.95;5.90;;;15.10;99.90;;;;;;5093925;28;20043;-50
2023/10/10 00:57:52;;;;;;;13.25;5.97;;;15.10;99.90;;;;;;5093776;28;20470;-52
2023/10/10 01:00:19;;;;;;;10.52;6.22;;;15.00;99.90;;;;;;5093801;28;20158;-48
2023/10/10 01:02:46;;;;;;;10.27;6.25;;;15.00;99.90;;;;;;5093260;28;20592;-47
2023/10/10 01:05:12;;;;;;;8.70;5.72;;;15.00;99.90;;;;;;5093633;28;20046;-49
2023/10/10 01:07:47;;;;;;;9.30;5.90;;;15.10;99.90;;;;;;5093241;28;20082;-49
2023/10/10 01:10:16;;;;;;;9.45;6.30;;;15.00;99.90;;;;;;5093436;28;20039;-47
2023/10/10 01:12:44;;;;;;;11.98;5.95;;;15.10;99.90;;;;;;5093247;28;20085;-48
2023/10/10 01:15:16;;;;;;;9.73;5.65;;;15.10;99.90;;;;;;5093142;28;20048;-46
2023/10/10 01:17:43;;;;;;;10.75;5.10;;;15.00;99.90;;;;;;5093251;28;20040;-46
2023/10/10 01:20:20;;;;;;;13.00;5.60;;;15.10;99.90;;;;;;5092999;28;20486;-46
2023/10/10 01:22:48;;;;;;;9.10;4.95;;;15.00;99.90;;;;;;5093209;28;20090;-47
2023/10/10 01:28:22;;;;;;;8.98;5.53;;;15.00;99.90;;;;;;5102978;28;20504;-47
2023/10/10 01:33:42;;;;;;;8.23;4.93;;;15.00;99.90;;;;;;5113251;28;20035;-47
2023/10/10 01:36:12;;;;;;;9.10;5.38;;;15.10;99.90;;;;;;5112553;28;20073;-46
2023/10/10 01:38:55;;;;;;;10.48;5.53;;;15.10;99.90;;;;;;5099515;28;20871;-48
2023/10/10 01:41:31;;;;;;;9.25;5.70;;;15.00;99.90;;;;;;5113131;28;20409;-48
2023/10/10 01:44:12;;;;;;;11.27;5.85;;;15.00;99.90;;;;;;5112153;28;20481;-47
2023/10/10 01:46:41;;;;;;;14.20;5.88;;;15.10;99.90;;;;;;5112893;28;20424;-48
2023/10/10 01:49:19;;;;;;;11.63;6.18;;;15.10;99.90;;;;;;5113062;28;20042;-47
2023/10/10 01:51:45;;;;;;;10.82;6.47;;;15.10;99.90;;;;;;5113023;28;20051;-48
2023/10/10 01:54:15;;;;;;;10.10;6.30;;;15.10;99.90;;;;;;5112811;28;20055;-47
2023/10/10 01:56:45;;;;;;;11.13;6.53;;;15.00;99.90;;;;;;5112914;28;20092;-48
2023/10/10 01:59:14;;;;;;;12.55;6.65;;;15.10;99.90;;;;;;5112666;28;20496;-47
2023/10/10 02:01:43;;;;;;;11.45;6.68;;;15.20;99.90;;;;;;5094363;28;20501;-47
2023/10/10 02:04:10;;;;;;;12.02;6.57;;;15.20;99.90;;;;;;5112673;28;20042;-49
2023/10/10 02:06:39;;;;;;;14.15;7.28;;;15.10;99.90;;;;;;5094434;28;20047;-48
2023/10/10 02:09:11;;;;;;;14.32;7.97;;;15.20;99.90;;;;;;5112723;28;20039;-47
2023/10/10 02:11:50;;;;;;;14.90;7.88;;;15.20;99.90;;;;;;5112810;28;20043;-50
2023/10/10 02:14:18;;;;;;;16.48;6.95;;;15.30;99.90;;;;;;5112608;28;20421;-50
2023/10/10 02:16:47;;;;;;;12.02;8.07;;;15.10;99.90;;;;;;5112714;28;20039;-47
2023/10/10 02:19:24;;;;;;;13.40;7.28;;;15.30;99.90;;;;;;5112610;28;20035;-48
2023/10/10 02:21:51;;;;;;;16.67;7.55;;;15.30;99.90;;;;;;5112323;28;20114;-49
2023/10/10 02:25:31;;;;;;;16.42;8.18;;;15.20;99.90;;;;;;5094186;28;20048;-47
2023/10/10 02:27:06;;;;;;;11.88;7.20;;;15.10;99.90;;;;;;5098230;28;20190;-47
2023/10/10 02:32:09;;;;;;;16.67;8.25;;;15.10;99.90;;;;;;5091786;28;20128;-48
2023/10/10 02:34:36;;;;;;;15.15;8.15;;;15.20;99.90;;;;;;5091565;28;20410;-51
2023/10/10 02:37:41;;;;;;;12.63;7.78;;;15.10;99.90;;;;;;5091730;28;20114;-46
2023/10/10 02:40:13;;;;;;;10.32;7.43;;;15.20;99.90;;;;;;5091527;28;20051;-48
2023/10/10 02:42:39;;;;;;;14.68;7.90;;;15.20;99.90;;;;;;5078942;28;20040;-46
2023/10/10 02:45:06;;;;;;;13.00;7.63;;;15.00;99.90;;;;;;5090166;28;20119;-48
2023/10/10 02:47:32;;;;;;;16.65;8.25;;;15.20;99.90;;;;;;5091555;28;20120;-47
2023/10/10 02:50:40;;;;;;;13.45;8.77;;;15.20;99.90;;;;;;5091615;28;20044;-46
2023/10/10 02:53:06;;;;;;;13.20;7.80;;;15.10;99.90;;;;;;5090908;28;20047;-47
2023/10/10 02:55:33;;;;;;;11.38;7.93;;;15.20;99.90;;;;;;5091602;28;20461;-47
2023/10/10 02:57:59;;;;;;;10.63;8.00;;;15.10;99.90;;;;;;5091533;28;20074;-47
2023/10/10 03:02:54;;;;;;;14.95;8.43;;;15.20;99.90;;;;;;5091591;28;20048;-49
2023/10/10 03:05:38;;;;;;;12.40;8.52;;;15.20;99.90;;;;;;5091466;28;20036;-47
2023/10/10 03:08:18;;;;;;;14.20;7.93;;;15.20;99.90;;;;;;5091261;28;20047;-48
2023/10/10 03:10:54;;;;;;;12.30;9.00;;;15.30;99.90;;;;;;5091256;28;20501;-47
2023/10/10 03:13:36;;;;;;;13.52;7.78;;;15.30;99.90;;;;;;5091370;28;20036;-45
2023/10/10 03:29:20;;;;;;;14.88;8.85;;;15.20;99.90;;;;;;5091118;28;20044;-47
2023/10/10 03:31:47;;;;;;;11.68;8.93;;;15.30;99.90;;;;;;5091213;28;20040;-48
2023/10/10 03:34:30;;;;;;;13.13;8.07;;;15.30;99.90;;;;;;5091068;28;20047;-47
2023/10/10 03:39:49;;;;;;;11.38;8.70;;;15.20;99.90;;;;;;5091146;28;20036;-46
2023/10/10 05:23:53;;;;;;;20.35;10.38;;;15.10;99.90;;;;;;5093145;28;20040;-46
2023/10/10 05:26:19;;;;;;;15.02;10.88;;;15.10;99.90;;;;;;5093467;28;20055;-48
2023/10/10 05:28:48;;;;;;;13.43;10.45;;;15.20;99.90;;;;;;5092776;28;20040;-46
2023/10/10 05:31:21;;;;;;;20.83;12.60;;;15.10;99.90;;;;;;5092891;28;20047;-45
2023/10/10 05:33:47;;;;;;;19.88;12.68;;;15.10;99.90;;;;;;5092842;28;20141;-47
2023/10/10 05:36:13;;;;;;;24.38;13.90;;;15.10;99.90;;;;;;5092693;28;20502;-46
2023/10/10 05:38:39;;;;;;;19.33;13.38;;;15.20;99.90;;;;;;5092827;28;20515;-48
2023/10/10 05:41:12;;;;;;;21.98;14.32;;;15.10;99.90;;;;;;5093114;28;20028;-47
2023/10/10 05:43:39;;;;;;;25.80;14.57;;;15.20;99.90;;;;;;5092750;28;20040;-45
2023/10/10 05:46:05;;;;;;;24.70;16.58;;;15.10;99.90;;;;;;5092793;28;20055;-48
2023/10/10 05:48:35;;;;;;;19.85;16.02;;;15.10;99.90;;;;;;5092644;28;20047;-47
2023/10/10 05:51:03;;;;;;;26.27;16.73;;;15.10;99.90;;;;;;5092772;28;20044;-47
2023/10/10 05:53:33;;;;;;;20.40;14.30;;;15.10;99.90;;;;;;5092402;28;20473;-46
2023/10/10 05:55:59;;;;;;;23.40;17.40;;;15.00;99.90;;;;;;5074852;28;20413;-50
2023/10/10 05:58:26;;;;;;;23.38;15.57;;;15.20;99.90;;;;;;5092366;28;20036;-47
2023/10/10 06:00:53;;;;;;;20.70;15.70;;;15.10;99.90;;;;;;5092324;28;20036;-50
2023/10/10 06:03:21;;;;;;;24.80;17.58;;;15.20;99.90;;;;;;5092253;28;20051;-47
2023/10/10 06:05:49;;;;;;;30.67;19.73;;;15.10;99.90;;;;;;5092309;28;20052;-47
2023/10/10 06:08:15;;;;;;;24.00;16.67;;;15.10;99.90;;;;;;5092413;28;20050;-48
2023/10/10 06:10:41;;;;;;;29.88;19.05;;;15.20;99.90;;;;;;5092069;28;20089;-48
2023/10/10 06:13:07;;;;;;;27.77;18.95;;;15.20;99.90;;;;;;5092194;28;20035;-47
2023/10/10 06:15:34;;;;;;;41.15;21.80;;;15.20;99.90;;;;;;5092242;28;20474;-45
2023/10/10 06:18:13;;;;;;;36.03;22.38;;;15.10;99.90;;;;;;5092261;28;20032;-50
2023/10/10 06:20:43;;;;;;;35.80;21.75;;;15.30;99.90;;;;;;5073807;28;20466;-50
2023/10/10 06:23:17;;;;;;;42.10;23.30;;;15.10;99.90;;;;;;5092087;28;20097;-50
2023/10/10 06:25:43;;;;;;;34.67;20.88;;;15.20;99.90;;;;;;5074167;28;20040;-51
2023/10/10 06:28:26;;;;;;;40.97;24.55;;;15.20;99.90;;;;;;5091907;28;20044;-47
2023/10/10 06:30:53;;;;;;;44.20;25.60;;;15.20;99.90;;;;;;5091502;28;20052;-51
2023/10/10 06:33:29;;;;;;;46.13;25.80;;;15.20;99.90;;;;;;5091934;28;20040;-47
2023/10/10 06:36:32;;;;;;;48.83;26.00;;;15.30;99.90;;;;;;5091774;28;20042;-51
2023/10/10 06:41:42;;;;;;;48.40;26.70;;;15.20;99.90;;;;;;5091738;28;20049;-48
2023/10/10 06:44:13;;;;;;;42.58;24.75;;;15.30;99.90;;;;;;5091872;28;20077;-50
2023/10/10 06:46:40;;;;;;;41.67;23.67;;;15.40;99.90;;;;;;5091760;28;20545;-50
2023/10/10 06:49:07;;;;;;;37.72;23.38;;;15.50;99.90;;;;;;5092239;28;20054;-50
2023/10/10 06:51:39;;;;;;;42.63;24.33;;;15.40;99.90;;;;;;5091707;28;20105;-51
2023/10/10 06:54:08;;;;;;;37.20;22.92;;;15.50;99.90;;;;;;5091768;28;20416;-47
2023/10/10 06:56:44;;;;;;;37.65;23.35;;;15.50;99.90;;;;;;5091596;28;20036;-46
2023/10/10 06:59:16;;;;;;;39.67;21.95;;;15.50;99.90;;;;;;5075052;28;20035;-50
2023/10/10 07:01:45;;;;;;;41.15;22.17;;;15.40;99.90;;;;;;5091770;28;20439;-51
2023/10/10 07:04:12;;;;;;;;;;;15.40;99.90;;;;;;5074061;28;20075;-50
2023/10/10 07:06:38;;;;;;;33.55;21.08;;;15.70;99.90;;;;;;5073509;28;19916;-49
2023/10/10 07:09:27;;;;;;;34.17;22.38;;;15.50;99.90;;;;;;5073646;28;20117;-47
2023/10/10 07:11:53;;;;;;;35.05;21.48;;;15.60;99.90;;;;;;5073610;28;20040;-47
2023/10/10 07:14:19;;;;;;;33.35;21.58;;;15.50;99.90;;;;;;5091536;28;20045;-47
2023/10/10 07:16:45;;;;;;;34.00;20.60;;;15.70;99.90;;;;;;5091740;28;20457;-49
2023/10/10 07:19:19;;;;;;;36.15;21.35;;;15.70;99.90;;;;;;5091665;28;20090;-49
2023/10/10 07:21:50;;;;;;;32.08;20.58;;;15.70;99.90;;;;;;5091400;28;20115;-46
2023/10/10 07:24:17;;;;;;;33.00;21.08;;;15.80;99.90;;;;;;5091175;28;20115;-47
2023/10/10 07:26:58;;;;;;;33.92;20.60;;;16.00;99.90;;;;;;5091292;28;20551;-46
2023/10/10 07:29:57;;;;;;;29.73;20.42;;;15.90;99.90;;;;;;5086827;28;20047;-47
2023/10/10 07:32:16;;;;;;;28.40;19.60;;;15.90;99.90;;;;;;5100726;28;20051;-46
2023/10/10 07:34:50;;;;;;;27.20;18.85;;;16.00;99.90;;;;;;5111771;28;20397;-45
2023/10/10 07:37:17;;;;;;;32.13;19.30;;;16.10;99.90;;;;;;5111406;28;20110;-49
2023/10/10 07:39:55;;;;;;;26.63;17.70;;;16.10;99.90;;;;;;5093647;28;20109;-48
2023/10/10 07:42:29;;;;;;;25.05;17.80;;;16.20;99.90;;;;;;5113438;28;20036;-48
2023/10/10 07:44:55;;;;;;;27.58;18.30;;;16.30;99.90;;;;;;5115459;28;20043;-47
2023/10/10 07:47:25;;;;;;;26.20;18.50;;;16.40;99.90;;;;;;5115482;28;20416;-49
2023/10/10 07:49:55;;;;;;;32.15;21.05;;;16.40;99.90;;;;;;5115506;28;20031;-48
2023/10/10 07:52:22;;;;;;;37.90;22.98;;;16.30;99.90;;;;;;5115405;28;20052;-50
2023/10/10 07:54:53;;;;;;;39.08;24.25;;;16.40;99.90;;;;;;5115125;28;20069;-48
2023/10/10 07:57:22;;;;;;;39.38;24.55;;;16.40;99.90;;;;;;5115064;28;20035;-47
2023/10/10 07:59:49;;;;;;;48.95;25.80;;;16.50;99.90;;;;;;5115617;28;20044;-47
2023/10/10 08:02:24;;;;;;;42.47;26.85;;;16.70;99.90;;;;;;5115558;28;20364;-47
2023/10/10 08:05:01;;;;;;;48.05;27.48;;;16.70;99.90;;;;;;5115193;28;20027;-47
2023/10/10 08:07:28;;;;;;;46.25;28.90;;;16.70;99.90;;;;;;5114717;28;20048;-50
2023/10/10 08:12:40;;;;;;;53.60;30.60;;;16.80;99.90;;;;;;5115277;28;20096;-48
2023/10/10 08:15:48;;;;;;;44.67;28.75;;;17.00;99.90;;;;;;5114911;28;20032;-49
2023/10/10 08:17:59;;;;;;;44.75;27.90;;;17.00;99.90;;;;;;5109745;28;20400;-47
2023/10/10 08:23:07;;;;;;;39.30;27.65;;;17.00;99.90;;;;;;5114759;28;20048;-47
2023/10/10 08:25:33;;;;;;;45.40;28.27;;;17.10;99.90;;;;;;5114737;28;20031;-49
2023/10/10 08:28:00;;;;;;;42.58;28.85;;;17.10;99.90;;;;;;5114464;28;20044;-50
2023/10/10 08:30:26;;;;;;;42.75;29.60;;;17.10;99.90;;;;;;5114387;28;20058;-49
2023/10/10 08:32:56;;;;;;;44.42;28.60;;;17.20;99.90;;;;;;5114492;28;20036;-50
2023/10/10 08:35:23;;;;;;;42.30;28.85;;;17.20;99.90;;;;;;5114569;28;20036;-51
2023/10/10 08:37:53;;;;;;;45.90;27.75;;;17.30;99.90;;;;;;5114491;28;20035;-48
2023/10/10 08:40:22;;;;;;;47.75;27.45;;;17.40;99.90;;;;;;5114487;28;20047;-51
2023/10/10 08:42:49;;;;;;;;;;;17.60;99.90;;;;;;5114791;28;20393;-47
2023/10/10 08:45:26;;;;;;;38.30;26.50;;;17.60;99.90;;;;;;5114251;28;19916;-49
2023/10/10 08:48:01;;;;;;;41.53;29.25;;;17.60;99.90;;;;;;5114270;28;20034;-49
2023/10/10 08:50:34;;;;;;;36.53;26.95;;;17.60;99.90;;;;;;5114327;28;20039;-49
2023/10/10 08:53:00;;;;;;;35.75;26.73;;;17.70;99.90;;;;;;5114030;28;20040;-47
2023/10/10 08:55:26;;;;;;;41.45;26.35;;;17.70;99.90;;;;;;5100056;28;20387;-49
2023/10/10 08:57:55;;;;;;;38.75;25.88;;;17.90;99.90;;;;;;5114069;28;20044;-50
2023/10/10 09:00:28;;;;;;;31.63;25.38;;;18.00;99.90;;;;;;5114023;28;20819;-51
2023/10/10 09:02:56;;;;;;;36.22;26.60;;;18.10;99.90;;;;;;5113765;28;20529;-50
2023/10/10 09:05:24;;;;;;;;;;;18.20;99.90;;;;;;5096190;28;20152;-48
2023/10/10 09:07:54;;;;;;;38.55;26.85;;;18.30;99.90;;;;;;5113995;28;19915;-50
2023/10/10 09:10:28;;;;;;;38.40;26.67;;;18.30;99.90;;;;;;5113899;28;20039;-47
2023/10/10 09:12:56;;;;;;;41.40;27.65;;;18.40;99.90;;;;;;5113878;28;20049;-48
2023/10/10 09:15:23;;;;;;;39.15;29.17;;;18.50;99.90;;;;;;5113890;28;20028;-47
2023/10/10 09:17:55;;;;;;;38.63;29.23;;;18.60;99.90;;;;;;5113615;28;20133;-49
2023/10/10 09:20:28;;;;;;;46.90;30.38;;;18.60;99.90;;;;;;5113713;28;20034;-47
2023/10/10 09:23:02;;;;;;;42.30;30.17;;;18.60;99.90;;;;;;5095222;28;20044;-50
2023/10/10 09:28:15;;;;;;;45.05;32.33;;;18.70;99.90;;;;;;5109379;28;20131;-46
2023/10/10 09:30:58;;;;;;;48.75;31.98;;;18.80;99.90;;;;;;5093153;28;20040;-48
2023/10/10 09:33:33;;;;;;;48.58;34.20;;;18.90;99.90;;;;;;5093036;28;20044;-46
2023/10/10 09:36:09;;;;;;;46.03;31.40;;;18.90;99.90;;;;;;5092959;28;20466;-48
2023/10/10 09:39:26;;;;;;;43.35;32.10;;;18.90;99.90;;;;;;5092796;28;20040;-47
2023/10/10 10:00:45;;;;;;;46.13;29.65;;;19.10;99.90;;;;;;5092598;28;20047;-48
2023/10/10 10:05:58;;;;;;;42.90;28.63;;;19.00;99.90;;;;;;5091890;28;20054;-48
2023/10/10 10:08:42;;;;;;;44.10;28.33;;;19.00;99.90;;;;;;5092182;28;20052;-47
2023/10/10 10:11:19;;;;;;;45.78;30.13;;;19.00;99.90;;;;;;5092504;28;20088;-45
2023/10/10 10:14:36;;;;;;;41.13;29.20;;;19.10;99.90;;;;;;5092154;28;20039;-50
2023/10/10 10:17:18;;;;;;;46.63;29.48;;;19.20;99.90;;;;;;5092058;28;20069;-46
2023/10/10 10:19:45;;;;;;;48.20;30.95;;;19.30;99.90;;;;;;5092397;28;20048;-47
2023/10/10 10:22:20;;;;;;;42.42;30.15;;;19.20;99.90;;;;;;5092130;28;20040;-48
2023/10/10 10:24:50;;;;;;;45.35;30.90;;;19.30;99.90;;;;;;5074245;28;20047;-47
2023/10/10 10:27:39;;;;;;;43.70;28.63;;;19.40;99.90;;;;;;5091769;28;20126;-48
2023/10/10 10:32:46;;;;;;;38.83;27.70;;;19.50;99.90;;;;;;5092416;28;20441;-49
2023/10/10 10:35:23;;;;;;;39.10;29.17;;;19.60;99.90;;;;;;5092122;28;20138;-47
2023/10/10 10:37:58;;;;;;;42.13;27.90;;;19.70;99.90;;;;;;5091728;28;20590;-47
2023/10/10 10:40:51;;;;;;;43.90;27.77;;;19.70;99.90;;;;;;5091942;28;20044;-47
2023/10/10 10:43:31;;;;;;;38.70;26.17;;;19.80;99.90;;;;;;5091535;28;20131;-48
2023/10/10 10:46:27;;;;;;;38.95;26.67;;;19.90;99.90;;;;;;5091496;28;20124;-50
2023/10/10 10:49:05;;;;;;;42.08;26.80;;;19.90;99.90;;;;;;5091882;28;20044;-48
2023/10/10 10:51:41;;;;;;;42.17;26.35;;;19.90;99.90;;;;;;5091496;28;20036;-49
2023/10/10 10:54:35;;;;;;;41.08;26.70;;;20.00;99.90;;;;;;5091906;28;20163;-46
2023/10/10 10:57:03;;;;;;;43.00;27.77;;;20.00;99.90;;;;;;5091416;28;20036;-51
2023/10/10 10:59:38;;;;;;;37.85;25.75;;;20.10;99.90;;;;;;5091785;28;20039;-49
2023/10/10 11:02:15;;;;;;;41.05;26.65;;;20.10;99.90;;;;;;5091286;28;20051;-49
2023/10/10 11:04:49;;;;;;;42.60;26.38;;;20.20;99.90;;;;;;5091336;28;20501;-47
2023/10/10 11:07:26;;;;;;;40.78;26.90;;;20.20;99.90;;;;;;5073504;28;20044;-49
2023/10/10 11:10:06;;;;;;;39.95;27.50;;;20.20;99.90;;;;;;5074081;28;20060;-48
2023/10/10 11:12:32;;;;;;;44.33;27.58;;;20.20;99.90;;;;;;5091967;28;20032;-50
2023/10/10 11:15:04;;;;;;;38.75;26.10;;;20.20;99.90;;;;;;5091471;28;20032;-48
2023/10/10 11:17:37;;;;;;;42.30;28.15;;;20.10;99.90;;;;;;5095827;28;20160;-48
2023/10/10 11:20:26;;;;;;;36.85;25.98;;;20.10;99.90;;;;;;5095566;28;20047;-46
2023/10/10 11:23:06;;;;;;;38.92;27.08;;;20.10;99.90;;;;;;5095187;28;20478;-46
2023/10/10 11:25:41;;;;;;;43.15;25.98;;;20.10;99.90;;;;;;5095175;28;20083;-47
2023/10/10 11:28:21;;;;;;;34.97;25.20;;;20.10;99.90;;;;;;5095369;28;20072;-48
2023/10/10 11:30:49;;;;;;;42.90;26.50;;;20.20;99.90;;;;;;5095204;28;20413;-47
2023/10/10 11:33:17;;;;;;;38.25;27.23;;;20.30;99.90;;;;;;5095050;28;20043;-47
2023/10/10 11:35:50;;;;;;;40.17;26.42;;;20.30;99.90;;;;;;5095212;28;20384;-47
2023/10/10 11:38:16;;;;;;;36.65;25.50;;;20.40;99.90;;;;;;5095005;28;20072;-47
2023/10/10 11:40:44;;;;;;;34.78;25.65;;;20.60;99.90;;;;;;5095120;28;20051;-46
2023/10/10 11:43:12;;;;;;;38.17;25.00;;;20.80;99.90;;;;;;5094860;28;20036;-48
2023/10/10 11:45:51;;;;;;;42.00;24.58;;;20.80;99.90;;;;;;5094885;28;20051;-49
2023/10/10 11:48:19;;;;;;;33.10;24.77;;;20.80;99.90;;;;;;5094966;28;20036;-48
2023/10/10 11:50:56;;;;;;;40.17;22.95;;;20.80;99.90;;;;;;5094911;28;20051;-50
2023/10/10 11:53:29;;;;;;;33.53;23.67;;;20.80;99.90;;;;;;5092037;28;20036;-49
2023/10/10 11:56:01;;;;;;;32.97;24.20;;;20.90;99.90;;;;;;5095123;28;20137;-48
2023/10/10 11:58:39;;;;;;;32.97;23.85;;;20.90;99.90;;;;;;5094839;28;20085;-47
2023/10/10 12:01:09;;;;;;;33.00;23.73;;;21.10;99.90;;;;;;5094695;28;20054;-50
2023/10/10 12:06:04;;;;;;;30.67;22.05;;;21.40;99.90;;;;;;5094785;28;20051;-47
2023/10/10 12:08:29;;;;;;;41.28;22.80;;;21.50;99.90;;;;;;5094522;28;20028;-48
2023/10/10 12:11:06;;;;;;;32.50;23.52;;;21.60;99.90;;;;;;5094539;28;20464;-48
2023/10/10 12:15:58;;;;;;;32.60;22.00;;;21.70;99.90;;;;;;5094586;28;20036;-46
2023/10/10 12:18:30;;;;;;;35.95;21.95;;;21.70;99.90;;;;;;5094647;28;20097;-45
2023/10/10 12:21:01;;;;;;;31.60;21.38;;;21.60;99.90;;;;;;5094470;28;20555;-46
2023/10/10 12:23:28;;;;;;;32.78;22.77;;;21.60;99.90;;;;;;5094252;28;20535;-50
2023/10/10 12:25:54;;;;;;;30.52;21.92;;;21.50;99.90;;;;;;5094527;28;20044;-50
2023/10/10 12:28:20;;;;;;;32.88;21.20;;;21.50;99.90;;;;;;5093148;28;20040;-47
2023/10/10 12:30:46;;;;;;;30.10;21.90;;;21.40;99.90;;;;;;5094114;28;20074;-46
2023/10/10 12:33:12;;;;;;;29.38;18.95;;;21.30;99.90;;;;;;5094061;28;20072;-47
2023/10/10 12:35:46;;;;;;;33.20;20.95;;;21.30;99.90;;;;;;5093993;28;20043;-49
2023/10/10 12:38:20;;;;;;;26.85;19.80;;;21.30;99.90;;;;;;5094179;28;20563;-47
2023/10/10 12:40:50;;;;;;;28.98;19.48;;;21.40;99.90;;;;;;5093846;28;20055;-50
2023/10/10 12:43:25;;;;;;;29.13;19.23;;;21.40;99.90;;;;;;5094061;28;20481;-49
2023/10/10 12:45:54;;;;;;;31.20;20.92;;;21.40;99.90;;;;;;5093926;28;20088;-49
2023/10/10 12:48:20;;;;;;;;;;;21.30;99.90;;;;;;5094350;28;20040;-49
2023/10/10 12:50:52;;;;;;;32.10;20.52;;;21.30;99.90;;;;;;5093800;28;19916;-48
2023/10/10 12:53:19;;;;;;;26.70;19.30;;;21.20;99.90;;;;;;5093677;28;20036;-49
2023/10/10 12:55:49;;;;;;;28.42;18.63;;;21.10;99.90;;;;;;5093891;28;20048;-48
2023/10/10 12:58:20;;;;;;;27.05;18.35;;;21.10;99.90;;;;;;5093785;28;20050;-47
2023/10/10 13:00:50;;;;;;;28.95;18.83;;;21.10;99.90;;;;;;5093612;28;20508;-50
2023/10/10 13:03:27;;;;;;;25.75;18.02;;;21.10;99.90;;;;;;5093726;28;20052;-48
2023/10/10 13:05:58;;;;;;;29.35;19.25;;;21.00;99.90;;;;;;5093771;28;20096;-49
2023/10/10 13:08:25;;;;;;;26.10;17.73;;;21.00;99.90;;;;;;5093536;28;20174;-49
2023/10/10 13:11:00;;;;;;;25.70;18.10;;;21.00;99.90;;;;;;5093587;28;20032;-46
2023/10/10 13:13:31;;;;;;;23.77;17.45;;;20.90;99.90;;;;;;5093247;28;20128;-48
2023/10/10 13:16:21;;;;;;;27.27;18.07;;;21.00;99.90;;;;;;5093367;28;20044;-48
2023/10/10 13:18:48;;;;;;;25.13;15.90;;;21.10;99.90;;;;;;5093147;28;20561;-50
2023/10/10 13:21:15;;;;;;;28.52;17.30;;;21.20;99.90;;;;;;5093249;28;20397;-49
2023/10/10 13:23:43;;;;;;;27.65;17.33;;;21.30;99.90;;;;;;5093046;28;20051;-50
2023/10/10 13:26:10;;;;;;;23.08;15.73;;;21.20;99.90;;;;;;5093110;28;20473;-51
2023/10/10 13:28:37;;;;;;;21.95;16.23;;;21.10;99.90;;;;;;5092693;28;20071;-48
2023/10/10 13:31:03;;;;;;;24.80;15.90;;;21.10;99.90;;;;;;5093098;28;20040;-50
2023/10/10 13:33:29;;;;;;;25.95;16.00;;;21.00;99.90;;;;;;5093094;28;20058;-47
2023/10/10 13:35:54;;;;;;;22.25;16.17;;;20.90;99.90;;;;;;5074816;28;20414;-51
2023/10/10 13:38:20;;;;;;;30.73;17.75;;;20.90;99.90;;;;;;5092599;28;20047;-46
2023/10/10 13:40:48;;;;;;;27.45;16.90;;;20.80;99.90;;;;;;5091725;28;20046;-48
2023/10/10 13:43:18;;;;;;;26.15;15.98;;;20.70;99.90;;;;;;5092787;28;20461;-49
2023/10/10 13:45:48;;;;;;;26.33;16.55;;;20.70;99.90;;;;;;5092822;28;20499;-46
2023/10/10 13:48:17;;;;;;;25.05;16.27;;;20.70;99.90;;;;;;5092703;28;20161;-48
2023/10/10 13:50:46;;;;;;;26.10;17.00;;;20.70;99.90;;;;;;5092615;28;20086;-47
2023/10/10 13:53:14;;;;;;;25.23;16.83;;;20.70;99.90;;;;;;5092471;28;20040;-47
2023/10/10 13:55:44;;;;;;;30.83;17.65;;;20.70;99.90;;;;;;5092558;28;20039;-49
2023/10/10 13:58:16;;;;;;;24.30;16.83;;;20.70;99.90;;;;;;5092260;28;20036;-47
2023/10/10 14:00:52;;;;;;;25.77;17.65;;;20.80;99.90;;;;;;5086789;28;20044;-49
2023/10/10 14:03:28;;;;;;;25.92;17.52;;;20.80;99.90;;;;;;5091760;28;20032;-50
2023/10/10 14:06:00;;;;;;;26.15;17.88;;;20.80;99.90;;;;;;5091999;28;20055;-46
2023/10/10 14:08:27;;;;;;;27.20;18.20;;;20.80;99.90;;;;;;5092106;28;20032;-48
2023/10/10 14:10:54;;;;;;;25.05;17.70;;;20.80;99.90;;;;;;5091265;28;20089;-47
2023/10/10 14:13:20;;;;;;;25.65;17.60;;;20.70;99.90;;;;;;5091597;28;20133;-46
2023/10/10 14:16:01;;;;;;;27.30;17.30;;;20.70;99.90;;;;;;5091506;28;20090;-49
2023/10/10 14:19:09;;;;;;;28.23;17.58;;;20.70;99.90;;;;;;5085362;28;20151;-49
2023/10/10 14:21:28;;;;;;;28.90;18.45;;;20.60;99.90;;;;;;5086343;28;20097;-49
2023/10/10 14:24:13;;;;;;;26.40;17.65;;;20.60;99.90;;;;;;5091543;28;20474;-48
2023/10/10 14:26:43;;;;;;;30.60;18.92;;;20.60;99.90;;;;;;5091850;28;20052;-49
2023/10/10 14:29:12;;;;;;;29.27;17.70;;;20.60;99.90;;;;;;5092045;28;20083;-50
2023/10/10 14:31:45;;;;;;;28.50;19.15;;;20.50;99.90;;;;;;5091407;28;20036;-46
2023/10/10 14:34:19;;;;;;;28.58;20.02;;;20.50;99.90;;;;;;5092324;28;20036;-51
2023/10/10 14:36:46;;;;;;;37.38;20.10;;;20.50;99.90;;;;;;5074079;28;20032;-47
2023/10/10 14:41:57;;;;;;;30.38;18.85;;;20.40;99.90;;;;;;5091964;28;20501;-46
2023/10/10 14:44:24;;;;;;;30.73;19.98;;;20.40;99.90;;;;;;5091988;28;20485;-48
2023/10/10 14:46:51;;;;;;;31.15;20.02;;;20.40;99.90;;;;;;5091651;28;20047;-49
2023/10/10 14:49:17;;;;;;;28.38;19.83;;;20.40;99.90;;;;;;5092131;28;20484;-50
2023/10/10 14:51:48;;;;;;;29.05;19.55;;;20.40;99.90;;;;;;5091444;28;20107;-49
2023/10/10 14:54:17;;;;;;;29.90;19.33;;;20.30;99.90;;;;;;5092143;28;20393;-51
2023/10/10 14:56:49;;;;;;;26.65;18.80;;;20.30;99.90;;;;;;5091838;28;20085;-49
2023/10/10 14:59:20;;;;;;;31.10;18.90;;;20.30;99.90;;;;;;5091617;28;20036;-51
2023/10/10 15:01:50;;;;;;;29.92;18.77;;;20.40;99.90;;;;;;5091609;28;20486;-51
2023/10/10 15:04:18;;;;;;;33.70;19.23;;;20.40;99.90;;;;;;5091730;28;20036;-48
2023/10/10 15:06:46;;;;;;;25.52;17.13;;;20.40;99.90;;;;;;5091923;28;20115;-52
2023/10/10 15:09:13;;;;;;;30.05;18.38;;;20.40;99.90;;;;;;5091790;28;20036;-48
2023/10/10 15:11:43;;;;;;;30.50;18.75;;;20.30;99.90;;;;;;5091947;28;20039;-48
2023/10/10 15:14:10;;;;;;;24.73;17.45;;;20.30;99.90;;;;;;5091942;28;20794;-48
2023/10/10 15:16:36;;;;;;;26.45;16.60;;;20.30;99.90;;;;;;5091960;28;20040;-49
2023/10/10 15:19:06;;;;;;;26.05;17.67;;;20.30;99.90;;;;;;5091701;28;20039;-48
2023/10/10 15:21:36;;;;;;;25.85;17.60;;;20.30;99.90;;;;;;5091823;28;20040;-50
2023/10/10 15:24:03;;;;;;;26.00;17.08;;;20.30;99.90;;;;;;5091546;28;20039;-48
2023/10/10 15:26:29;;;;;;;22.75;16.95;;;20.30;99.90;;;;;;5073578;28;20374;-51
2023/10/10 15:28:56;;;;;;;22.52;16.42;;;20.30;99.90;;;;;;5091281;28;20053;-46
2023/10/10 15:31:27;;;;;;;24.77;17.38;;;20.20;99.90;;;;;;5091236;28;20054;-47
2023/10/10 15:33:54;;;;;;;28.30;18.25;;;20.20;99.90;;;;;;5091480;28;20043;-49
2023/10/10 15:36:20;;;;;;;27.20;18.05;;;20.20;99.90;;;;;;5091404;28;20024;-46
2023/10/10 15:38:46;;;;;;;31.52;19.80;;;20.10;99.90;;;;;;5091565;28;20036;-48
2023/10/10 15:41:19;;;;;;;23.23;18.30;;;20.10;99.90;;;;;;5091505;28;20451;-48
2023/10/10 15:43:47;;;;;;;27.17;18.08;;;20.00;99.90;;;;;;5091335;28;20035;-49